Time;durP1;ratioP1;P1;durP2;ratioP2;P2;SDS_P1;SDS_P2;PMS_P1;PMS_P2;Temp;Humidity;BMP_temperature;BMP_pressure;BME280_temperature;BME280_humidity;BME280_pressure;Samples;Min_cycle;Max_cycle;Signal;HPM_P1;HPM_P2
2022/07/22 00:00:20;;;;;;;5.80;1.73;;;;;;;27.22;42.84;98864.50;6157321;23;20147;-91
2022/07/22 00:02:47;;;;;;;4.15;2.03;;;;;;;27.09;42.93;98874.28;6130965;23;20151;-92
2022/07/22 00:05:21;;;;;;;3.30;1.58;;;;;;;27.18;42.71;98868.59;6131242;23;20189;-92
2022/07/22 00:07:48;;;;;;;5.65;1.42;;;;;;;27.12;43.40;98876.59;6131313;23;20182;-92
2022/07/22 00:10:14;;;;;;;4.33;1.50;;;;;;;27.02;43.49;98879.59;6131506;23;20173;-93
2022/07/22 00:12:41;;;;;;;5.93;1.38;;;;;;;26.99;43.46;98869.22;6131070;23;20159;-93
2022/07/22 00:15:09;;;;;;;3.67;1.65;;;;;;;27.04;43.48;98877.56;6131272;23;20249;-93
2022/07/22 00:17:38;;;;;;;3.03;1.70;;;;;;;27.02;43.44;98882.28;6130627;23;20162;-94
2022/07/22 00:20:07;;;;;;;6.10;1.70;;;;;;;27.00;44.00;98887.03;6131201;23;20151;-93
2022/07/22 00:22:34;;;;;;;3.63;1.70;;;;;;;26.99;43.95;98889.91;6131065;23;20159;-92
2022/07/22 00:25:00;;;;;;;6.65;1.80;;;;;;;27.00;43.48;98891.56;6131203;23;20159;-93
2022/07/22 00:27:27;;;;;;;2.28;1.42;;;;;;;26.99;44.16;98898.00;6131227;23;20183;-91
2022/07/22 00:29:54;;;;;;;3.63;1.45;;;;;;;26.96;43.74;98895.69;6131073;23;20159;-93
2022/07/22 00:32:23;;;;;;;5.07;2.17;;;;;;;26.92;44.12;98891.69;6156621;23;20151;-92
2022/07/22 00:34:49;;;;;;;5.07;1.70;;;;;;;26.80;44.88;98891.38;6130789;23;20619;-92
2022/07/22 00:37:16;;;;;;;4.68;1.40;;;;;;;26.71;44.56;98893.28;6130757;23;20151;-92
2022/07/22 00:39:43;;;;;;;3.35;1.70;;;;;;;26.73;44.94;98901.16;6130718;23;20179;-92
2022/07/22 00:42:16;;;;;;;4.25;1.88;;;;;;;26.75;44.57;98902.66;6130789;23;20179;-92
2022/07/22 00:44:43;;;;;;;3.20;1.60;;;;;;;26.64;45.34;98905.84;6131077;23;20155;-92
2022/07/22 00:47:10;;;;;;;5.37;1.80;;;;;;;26.54;45.43;98908.00;6130672;23;20266;-92
2022/07/22 00:49:37;;;;;;;3.83;1.80;;;;;;;26.63;45.08;98908.69;6156146;23;20151;-92
2022/07/22 00:52:05;;;;;;;2.60;1.40;;;;;;;26.56;45.31;98902.41;6130401;23;20177;-92
2022/07/22 00:54:32;;;;;;;3.80;1.42;;;;;;;26.54;45.31;98907.16;6130724;23;20155;-92
2022/07/22 00:56:59;;;;;;;5.35;1.60;;;;;;;26.52;45.64;98917.25;6130782;23;20163;-92
2022/07/22 00:59:26;;;;;;;4.32;1.77;;;;;;;26.47;45.80;98917.81;6156767;23;20709;-92
2022/07/22 01:01:53;;;;;;;4.43;1.50;;;;;;;26.48;45.89;98913.25;6130621;23;20183;-93
2022/07/22 01:04:22;;;;;;;3.00;1.58;;;;;;;26.47;45.62;98914.28;6130861;23;20158;-92
2022/07/22 01:06:49;;;;;;;4.32;1.65;;;;;;;26.44;45.71;98915.47;6130972;23;20187;-92
2022/07/22 01:09:16;;;;;;;3.70;1.90;;;;;;;26.38;46.00;98912.72;6130861;23;20151;-93
2022/07/22 01:11:45;;;;;;;4.20;1.73;;;;;;;26.42;45.73;98914.00;6130698;23;20225;-93
2022/07/22 01:14:13;;;;;;;4.45;1.80;;;;;;;26.45;45.57;98917.16;6130779;23;20225;-93
2022/07/22 01:16:40;;;;;;;7.87;1.90;;;;;;;26.34;46.39;98922.16;6130966;23;20162;-93
2022/07/22 01:19:07;;;;;;;5.97;1.70;;;;;;;26.30;46.33;98923.56;6156575;23;20563;-93
2022/07/22 01:21:34;;;;;;;3.23;1.73;;;;;;;26.24;46.60;98927.81;6130627;23;20165;-92
2022/07/22 01:24:01;;;;;;;2.78;1.45;;;;;;;26.18;46.93;98929.38;6130734;23;20166;-93
2022/07/22 01:26:28;;;;;;;5.47;1.67;;;;;;;26.09;46.98;98929.63;6129610;23;20165;-92
2022/07/22 01:28:55;;;;;;;3.43;1.77;;;;;;;26.04;47.43;98930.19;6130210;23;20159;-93
2022/07/22 01:31:21;;;;;;;2.47;1.43;;;;;;;26.09;47.20;98932.31;6130529;23;20163;-92
2022/07/22 01:33:48;;;;;;;4.93;1.83;;;;;;;26.11;46.83;98933.81;6130830;23;20154;-92
2022/07/22 01:36:15;;;;;;;4.43;1.90;;;;;;;26.02;47.13;98937.59;6130488;23;20159;-92
2022/07/22 01:38:42;;;;;;;5.63;1.37;;;;;;;25.98;47.57;98933.59;6130803;23;20173;-92
2022/07/22 01:41:08;;;;;;;8.60;1.87;;;;;;;26.01;47.37;98937.78;6156444;23;20226;-92
2022/07/22 01:43:35;;;;;;;3.27;1.63;;;;;;;25.86;48.35;98934.25;6130652;23;20181;-92
2022/07/22 01:46:02;;;;;;;3.83;1.70;;;;;;;25.68;49.17;98942.63;6156594;23;20151;-92
2022/07/22 01:48:29;;;;;;;6.17;1.70;;;;;;;25.64;49.09;98944.00;6130247;23;20183;-92
2022/07/22 01:50:55;;;;;;;4.13;2.03;;;;;;;25.71;48.53;98936.88;6130952;23;20155;-91
2022/07/22 01:53:22;;;;;;;4.33;1.70;;;;;;;25.67;48.68;98935.59;6130920;23;20166;-91
2022/07/22 01:55:49;;;;;;;3.03;1.83;;;;;;;25.61;48.39;98930.94;6130545;23;20269;-91
2022/07/22 01:58:16;;;;;;;7.50;1.90;;;;;;;25.56;49.36;98928.78;6130824;23;20553;-92
2022/07/22 02:00:43;;;;;;;3.60;1.90;;;;;;;25.50;49.80;98928.66;6130346;23;20155;-92
2022/07/22 02:03:10;;;;;;;5.07;1.67;;;;;;;25.35;50.14;98922.38;6130543;23;20166;-91
2022/07/22 02:05:38;;;;;;;4.73;1.87;;;;;;;25.38;49.81;98920.19;6130438;23;20151;-92
2022/07/22 02:08:08;;;;;;;3.80;1.97;;;;;;;25.37;50.07;98915.81;6129891;23;20509;-91
2022/07/22 02:10:35;;;;;;;5.07;2.10;;;;;;;25.36;50.64;98916.03;6130771;23;20166;-92
2022/07/22 02:13:01;;;;;;;3.97;1.80;;;;;;;25.29;50.86;98918.56;6130245;23;20159;-91
2022/07/22 02:15:28;;;;;;;4.67;1.63;;;;;;;25.13;51.68;98917.88;6130352;23;20155;-91
2022/07/22 02:17:56;;;;;;;9.17;2.53;;;;;;;25.09;51.80;98917.38;6155851;23;20171;-91
2022/07/22 02:20:23;;;;;;;2.83;1.90;;;;;;;25.03;51.88;98910.88;6130252;23;20155;-92
2022/07/22 02:22:49;;;;;;;6.37;1.93;;;;;;;25.11;51.21;98909.13;6155828;23;20654;-92
2022/07/22 02:25:16;;;;;;;4.40;1.80;;;;;;;25.12;51.00;98911.66;6130250;23;20271;-92
2022/07/22 02:27:43;;;;;;;4.50;1.47;;;;;;;25.08;51.04;98907.66;6155953;23;20606;-92
2022/07/22 02:30:11;;;;;;;5.60;1.90;;;;;;;24.92;52.74;98908.59;6155773;23;20219;-92
2022/07/22 02:32:37;;;;;;;4.13;1.77;;;;;;;24.94;51.85;98908.44;6129874;23;20222;-92
2022/07/22 02:35:05;;;;;;;3.67;1.50;;;;;;;24.92;51.84;98910.47;6130422;23;20171;-92
2022/07/22 02:37:32;;;;;;;3.77;2.00;;;;;;;24.89;51.71;98911.66;6130452;23;20609;-92
2022/07/22 02:39:59;;;;;;;6.27;2.23;;;;;;;24.62;53.05;98916.59;6130052;23;20155;-91
2022/07/22 02:42:25;;;;;;;5.13;1.60;;;;;;;24.48;53.59;98910.13;6131560;23;20166;-92
2022/07/22 02:44:52;;;;;;;4.17;2.00;;;;;;;24.41;53.58;98917.19;6131839;23;20151;-91
2022/07/22 02:47:19;;;;;;;5.20;2.00;;;;;;;24.51;53.41;98917.81;6131593;23;20175;-91
2022/07/22 02:49:46;;;;;;;5.10;1.80;;;;;;;24.55;52.40;98918.31;6132064;23;20217;-92
2022/07/22 02:52:13;;;;;;;4.27;1.97;;;;;;;24.57;52.46;98914.47;6132238;23;20634;-91
2022/07/22 02:54:38;;;;;;;4.80;2.20;;;;;;;24.44;53.06;98917.69;6131336;23;20155;-91
2022/07/22 02:57:05;;;;;;;4.20;2.10;;;;;;;24.42;52.83;98916.19;6131822;23;20552;-92
2022/07/22 02:59:32;;;;;;;4.50;2.00;;;;;;;24.48;52.85;98922.69;6131742;23;20498;-92
2022/07/22 03:01:59;;;;;;;6.10;1.90;;;;;;;24.42;53.09;98913.53;6131734;23;20217;-91
2022/07/22 03:04:25;;;;;;;4.90;1.67;;;;;;;24.29;53.58;98913.25;6157440;23;20159;-91
2022/07/22 03:06:52;;;;;;;3.30;1.60;;;;;;;24.24;53.80;98918.28;6131878;23;20214;-91
2022/07/22 03:09:19;;;;;;;4.67;2.20;;;;;;;24.08;54.47;98924.47;6131625;23;20159;-91
2022/07/22 03:11:46;;;;;;;8.13;2.40;;;;;;;24.01;54.90;98928.00;6131411;23;20242;-91
2022/07/22 03:14:13;;;;;;;5.43;2.53;;;;;;;23.97;54.93;98932.03;6131547;23;20182;-91
2022/07/22 03:16:39;;;;;;;6.50;2.17;;;;;;;23.92;54.77;98921.00;6132021;23;20202;-91
2022/07/22 03:19:06;;;;;;;4.10;2.27;;;;;;;23.92;54.69;98931.72;6131624;23;20155;-91
2022/07/22 03:21:33;;;;;;;5.17;2.33;;;;;;;24.05;54.08;98929.34;6131113;23;20151;-91
2022/07/22 03:23:59;;;;;;;3.50;1.70;;;;;;;23.95;54.52;98934.84;6131292;23;20590;-91
2022/07/22 03:26:26;;;;;;;4.03;2.13;;;;;;;23.90;54.57;98947.09;6131311;23;20151;-92
2022/07/22 03:28:54;;;;;;;7.50;2.37;;;;;;;23.87;54.06;98942.94;6131608;23;20187;-93
2022/07/22 03:31:20;;;;;;;3.63;1.70;;;;;;;23.95;53.81;98940.22;6131707;23;20151;-92
2022/07/22 03:33:47;;;;;;;5.30;2.27;;;;;;;23.92;54.00;98934.38;6131497;23;20503;-92
2022/07/22 03:36:14;;;;;;;3.87;1.97;;;;;;;23.91;54.29;98935.38;6157540;23;20586;-91
2022/07/22 03:38:44;;;;;;;3.80;1.80;;;;;;;23.89;54.63;98940.06;6131380;23;20155;-92
2022/07/22 03:41:10;;;;;;;4.97;2.30;;;;;;;23.81;54.96;98946.28;6131726;23;20165;-92
2022/07/22 03:43:37;;;;;;;6.47;1.90;;;;;;;23.79;55.11;98943.75;6157304;23;20155;-91
2022/07/22 03:46:04;;;;;;;6.73;2.20;;;;;;;23.81;54.84;98941.75;6131360;23;20163;-92
2022/07/22 03:48:31;;;;;;;3.73;1.90;;;;;;;23.81;55.00;98941.75;6156594;23;20229;-91
2022/07/22 03:50:57;;;;;;;5.53;2.23;;;;;;;23.77;55.64;98943.09;6130906;23;20586;-92
2022/07/22 03:53:23;;;;;;;3.70;1.63;;;;;;;23.85;55.12;98942.25;6156528;23;20143;-91
2022/07/22 03:55:50;;;;;;;4.80;2.00;;;;;;;23.84;55.93;98938.75;6156720;23;20210;-91
2022/07/22 03:58:18;;;;;;;4.63;2.53;;;;;;;23.81;56.07;98944.44;6130590;23;20175;-92
2022/07/22 04:00:45;;;;;;;4.03;2.00;;;;;;;23.76;56.24;98945.94;6130351;23;20178;-92
2022/07/22 04:03:14;;;;;;;7.50;2.43;;;;;;;23.73;56.42;98946.28;6130562;23;20159;-91
2022/07/22 04:05:41;;;;;;;4.47;2.67;;;;;;;23.74;56.34;98945.28;6130917;23;20163;-94
2022/07/22 04:08:08;;;;;;;8.10;3.07;;;;;;;23.75;57.02;98942.44;6130455;23;20274;-90
2022/07/22 04:10:35;;;;;;;3.47;2.00;;;;;;;23.79;57.09;98940.25;6156435;23;20151;-89
2022/07/22 04:13:01;;;;;;;4.70;2.53;;;;;;;23.75;56.83;98939.75;6130819;23;20150;-90
2022/07/22 04:15:28;;;;;;;7.73;3.50;;;;;;;23.78;57.30;98939.41;6130991;23;20159;-90
2022/07/22 04:17:55;;;;;;;5.27;2.60;;;;;;;23.86;56.93;98946.59;6130858;23;20151;-89
2022/07/22 04:20:22;;;;;;;8.23;2.50;;;;;;;23.84;57.27;98938.75;6130476;23;20159;-89
2022/07/22 04:22:49;;;;;;;4.70;2.40;;;;;;;23.88;57.14;98949.09;6156054;23;20181;-89
2022/07/22 04:25:15;;;;;;;10.83;2.80;;;;;;;23.88;57.23;98954.44;6130484;23;20169;-90
2022/07/22 04:27:42;;;;;;;4.87;2.33;;;;;;;23.89;57.34;98945.44;6155991;23;20187;-89
2022/07/22 04:30:09;;;;;;;6.07;2.43;;;;;;;23.90;56.76;98952.47;6156654;23;20186;-89
2022/07/22 04:32:36;;;;;;;7.33;2.50;;;;;;;24.04;57.02;98959.78;6155834;23;20238;-90
2022/07/22 04:35:04;;;;;;;6.07;2.43;;;;;;;24.11;57.05;98956.28;6129285;23;20609;-90
2022/07/22 04:37:32;;;;;;;7.53;3.37;;;;;;;24.25;56.60;98963.63;6130304;23;20634;-90
2022/07/22 04:39:59;;;;;;;14.27;7.87;;;;;;;24.24;57.40;98963.81;6155619;23;20147;-89
2022/07/22 04:42:26;;;;;;;31.73;14.03;;;;;;;24.26;57.53;98962.63;6130211;23;20653;-89
2022/07/22 04:44:52;;;;;;;22.87;8.90;;;;;;;24.26;57.82;98962.63;6155854;23;20150;-89
2022/07/22 04:47:19;;;;;;;12.57;5.70;;;;;;;24.36;57.62;98965.13;6155452;23;20258;-90
2022/07/22 04:49:46;;;;;;;9.33;4.23;;;;;;;24.41;57.94;98968.94;6155768;23;20226;-89
2022/07/22 04:52:13;;;;;;;8.63;3.73;;;;;;;24.44;58.14;98973.13;6155430;23;20595;-91
2022/07/22 04:54:38;;;;;;;8.13;3.17;;;;;;;24.45;57.91;98966.75;6129921;23;20155;-91
2022/07/22 04:57:05;;;;;;;5.80;2.97;;;;;;;24.35;58.94;98966.94;6155674;23;20193;-90
2022/07/22 04:59:31;;;;;;;7.77;3.43;;;;;;;24.43;58.15;98966.94;6130673;23;20173;-91
2022/07/22 05:01:58;;;;;;;14.80;3.63;;;;;;;24.44;58.49;98967.78;6130323;23;20155;-90
2022/07/22 05:04:25;;;;;;;10.63;3.77;;;;;;;24.54;58.65;98956.84;6129800;23;20625;-90
2022/07/22 05:06:51;;;;;;;7.00;3.50;;;;;;;24.67;58.42;98965.16;6155958;23;20206;-91
2022/07/22 05:09:18;;;;;;;6.93;3.10;;;;;;;24.83;58.55;98965.13;6130011;23;20186;-91
2022/07/22 05:11:46;;;;;;;8.90;3.40;;;;;;;24.94;58.67;98965.59;6155773;23;20153;-91
2022/07/22 05:14:12;;;;;;;6.30;3.63;;;;;;;24.99;58.44;98962.38;6156262;23;20151;-90
2022/07/22 05:16:39;;;;;;;5.03;3.00;;;;;;;25.01;58.45;98963.84;6156177;23;20182;-90
2022/07/22 05:19:06;;;;;;;6.93;3.23;;;;;;;25.12;58.91;98964.47;6156245;23;20155;-90
2022/07/22 05:21:33;;;;;;;9.97;3.27;;;;;;;25.17;58.85;98957.56;6129660;23;20630;-91
2022/07/22 05:23:59;;;;;;;5.40;2.80;;;;;;;25.27;58.94;98954.63;6155750;23;20151;-91
2022/07/22 05:26:29;;;;;;;6.33;3.33;;;;;;;25.45;58.28;98957.88;6156339;23;20213;-91
2022/07/22 05:28:56;;;;;;;4.80;2.60;;;;;;;25.64;58.14;98957.41;6130342;23;20218;-92
2022/07/22 05:31:22;;;;;;;5.00;2.83;;;;;;;25.87;57.70;98955.53;6155986;23;20151;-91
2022/07/22 05:33:50;;;;;;;6.23;2.90;;;;;;;26.02;57.72;98952.88;6129859;23;20155;-91
2022/07/22 05:36:17;;;;;;;7.07;2.87;;;;;;;26.32;56.95;98948.38;6105760;23;20570;-92
2022/07/22 05:38:46;;;;;;;9.87;2.53;;;;;;;26.53;56.36;98952.00;6156200;23;20241;-92
2022/07/22 05:41:12;;;;;;;6.75;2.78;;;;;;;26.72;55.79;98953.28;6155863;23;20151;-91
2022/07/22 05:43:39;;;;;;;6.33;2.70;;;;;;;26.96;54.68;98955.72;6130163;23;20182;-91
2022/07/22 05:46:09;;;;;;;6.70;2.90;;;;;;;27.01;54.87;98947.91;6130544;23;20159;-92
2022/07/22 05:48:38;;;;;;;4.97;2.67;;;;;;;27.21;53.71;98950.78;6130700;23;20171;-91
2022/07/22 05:54:28;;;;;;;7.70;2.53;;;;;;;27.05;53.41;98954.56;6134317;23;20151;-91
2022/07/22 05:56:53;;;;;;;5.68;2.38;;;;;;;27.22;52.37;98956.00;6130034;23;20555;-92
2022/07/22 06:03:09;;;;;;;5.95;2.42;;;;;;;27.61;51.69;98952.06;6134394;23;20247;-92
2022/07/22 06:06:05;;;;;;;;;;;;;;;;;;;;;
2022/07/22 06:08:38;;;;;;;9.48;2.60;;;;;;;27.79;50.71;98965.91;6156188;23;20258;-92
2022/07/22 06:11:47;;;;;;;5.70;3.03;;;;;;;27.75;51.19;98972.72;6130659;23;20206;-91
2022/07/22 06:14:49;;;;;;;4.65;2.13;;;;;;;27.85;51.26;98955.19;6105654;23;20470;-92
2022/07/22 06:17:18;;;;;;;7.38;2.55;;;;;;;27.99;51.42;98959.63;6130754;23;20517;-92
2022/07/22 06:19:46;;;;;;;6.45;2.90;;;;;;;28.11;50.85;98961.81;6132199;23;20242;-92
2022/07/22 06:22:13;;;;;;;4.57;2.58;;;;;;;28.33;50.88;98966.94;6132069;23;20159;-91
2022/07/22 06:25:14;;;;;;;;;;;;;;;;;;;;;
2022/07/22 06:27:52;;;;;;;4.28;2.40;;;;;;;28.93;48.59;98958.16;6157707;23;20246;-92
2022/07/22 06:30:21;;;;;;;5.55;3.00;;;;;;;29.14;47.45;98949.13;6133502;23;20148;-93
2022/07/22 06:33:34;;;;;;;5.65;2.65;;;;;;;29.43;47.45;98953.38;6131347;23;20187;-93
2022/07/22 06:39:00;;;;;;;4.20;2.33;;;;;;;29.70;46.85;98950.47;6146473;23;20485;-92
2022/07/22 06:45:50;;;;;;;4.55;2.53;;;;;;;30.67;44.75;98956.03;6000049;23;20582;-92
2022/07/22 06:48:45;;;;;;;6.63;2.70;;;;;;;30.89;43.41;98962.00;6058179;23;20180;-93
2022/07/22 06:52:06;;;;;;;;;;;;;;;;;;;;;
2022/07/22 06:55:03;;;;;;;5.05;2.92;;;;;;;31.22;44.18;98967.28;6097348;23;20224;-91
2022/07/22 07:04:42;;;;;;;5.15;2.65;;;;;;;31.72;42.45;98963.66;6045252;23;20573;-92
2022/07/22 07:10:37;;;;;;;5.20;2.67;;;;;;;32.07;42.02;98964.84;5872926;24;20196;-93
2022/07/22 07:13:15;;;;;;;6.07;2.70;;;;;;;32.02;41.05;98959.25;5985017;23;20162;-93
2022/07/22 07:19:37;;;;;;;6.40;2.38;;;;;;;32.39;40.36;98953.91;5953871;24;20183;-93
2022/07/22 07:23:12;;;;;;;3.28;1.95;;;;;;;32.81;39.05;98939.44;5954167;24;20170;-93
2022/07/22 09:12:59;;;;;;;;;;;;;;;;;;;;;
2022/07/22 09:27:21;;;;;;;;;;;;;;;;;;;;;
2022/07/22 13:36:19;;;;;;;;;;;;;;;;;;;;;
2022/07/22 14:24:43;;;;;;;1.85;1.30;;;;;;;42.23;19.69;98765.59;5756488;24;20218;-91
2022/07/22 14:41:53;;;;;;;4.53;1.90;;;;;;;42.17;20.66;98764.03;6039469;23;20177;-92
2022/07/22 14:44:28;;;;;;;3.95;2.13;;;;;;;42.27;20.66;98761.16;6039807;23;20567;-92
2022/07/22 14:47:43;;;;;;;2.78;1.40;;;;;;;42.15;20.57;98764.34;6130542;23;20154;-93
2022/07/22 14:51:06;;;;;;;3.22;1.98;;;;;;;42.16;20.10;98762.41;6123211;23;20155;-94
2022/07/22 15:05:11;;;;;;;3.90;1.90;;;;;;;41.37;20.25;98758.25;5803669;24;20182;-92
2022/07/22 15:44:26;;;;;;;;;;;;;;;;;;;;;
2022/07/22 15:47:29;;;;;;;;;;;;;;;;;;;;;
2022/07/22 15:50:49;;;;;;;;;;;;;;;;;;;;;
2022/07/22 15:53:25;;;;;;;;;;;;;;;;;;;;;
2022/07/22 15:56:37;;;;;;;4.43;1.55;;;;;;;41.04;19.23;98767.31;6279181;22;20243;-92
2022/07/22 15:59:40;;;;;;;3.60;1.27;;;;;;;40.82;19.27;98773.22;6246268;22;20156;-91
2022/07/22 16:02:43;;;;;;;4.10;1.13;;;;;;;40.79;19.49;98767.47;6285915;22;20140;-91
2022/07/22 16:05:30;;;;;;;;;;;;;;;;;;;;;
2022/07/22 16:11:24;;;;;;;3.80;1.52;;;;;;;40.73;18.98;98774.09;6259644;22;20499;-92
2022/07/22 16:14:28;;;;;;;3.92;1.30;;;;;;;40.52;19.59;98784.38;6258960;22;20151;-92
2022/07/22 16:17:20;;;;;;;5.95;1.63;;;;;;;40.29;19.49;98785.84;6259150;22;20158;-92
2022/07/22 16:20:14;;;;;;;3.85;1.38;;;;;;;40.09;20.23;98788.69;6259052;22;20218;-92
2022/07/22 16:22:43;;;;;;;3.80;1.67;;;;;;;40.24;19.91;98788.63;6257793;22;20234;-92
2022/07/22 16:25:36;;;;;;;3.30;1.08;;;;;;;40.08;18.88;98794.44;6258436;22;20164;-91
2022/07/22 16:28:12;;;;;;;2.70;1.30;;;;;;;39.89;19.32;98789.53;6258599;22;20619;-92
2022/07/22 16:30:37;;;;;;;3.33;1.15;;;;;;;39.79;19.89;98799.72;6259069;22;20527;-93
2022/07/22 16:36:29;;;;;;;3.70;1.00;;;;;;;39.55;19.30;98801.34;6263870;22;20163;-92
2022/07/22 16:39:01;;;;;;;2.63;0.88;;;;;;;39.41;19.85;98794.81;6258302;22;20187;-93
2022/07/22 16:41:33;;;;;;;3.42;1.65;;;;;;;39.36;19.82;98800.28;6258769;22;20159;-92
2022/07/22 16:44:01;;;;;;;2.38;1.33;;;;;;;39.22;20.08;98800.84;6278889;22;20620;-92
2022/07/22 16:46:29;;;;;;;2.95;1.48;;;;;;;39.16;19.78;98806.56;6251009;22;20251;-91
2022/07/22 16:48:56;;;;;;;3.40;1.55;;;;;;;38.96;19.70;98804.63;6251023;22;20160;-93
2022/07/22 16:51:26;;;;;;;2.75;1.40;;;;;;;38.86;20.08;98804.63;6252313;22;20179;-91
2022/07/22 16:54:04;;;;;;;5.07;1.40;;;;;;;38.84;20.01;98801.31;6277789;22;20602;-92
2022/07/22 16:57:36;;;;;;;4.47;1.00;;;;;;;38.68;20.33;98807.84;6251202;22;20509;-92
2022/07/22 16:59:57;;;;;;;3.38;1.00;;;;;;;38.73;20.19;98816.06;6254119;22;20209;-93
2022/07/22 17:05:41;;;;;;;3.75;2.05;;;;;;;38.44;21.48;98812.97;6184420;23;20154;-91
2022/07/22 17:08:19;;;;;;;3.72;1.40;;;;;;;38.26;21.18;98823.53;6183604;23;20138;-91
2022/07/22 17:10:52;;;;;;;3.17;1.80;;;;;;;38.13;21.42;98819.38;6246419;23;20156;-91
2022/07/22 17:13:18;;;;;;;3.08;1.42;;;;;;;38.11;21.58;98822.38;6247562;23;20514;-91
2022/07/22 17:15:47;;;;;;;6.28;2.78;;;;;;;37.98;21.68;98822.84;6220835;23;20153;-90
2022/07/22 17:18:39;;;;;;;;;;;;;;;;;;;;;
2022/07/22 17:21:26;;;;;;;3.85;1.35;;;;;;;37.73;21.79;98828.13;6247783;23;20348;-92
2022/07/22 17:24:04;;;;;;;3.22;1.55;;;;;;;37.67;21.84;98823.69;6222034;23;20228;-92
2022/07/22 17:26:52;;;;;;;3.15;1.40;;;;;;;37.60;22.68;98830.50;6222033;23;20141;-93
2022/07/22 17:29:56;;;;;;;;;;;;;;;;;;;;;
2022/07/22 17:32:42;;;;;;;;;;;;;;;;;;;;;
2022/07/22 17:35:40;;;;;;;;;;;;;;;;;;;;;
2022/07/22 17:38:20;;;;;;;2.75;0.90;;;;;;;37.29;23.10;98829.41;6248733;23;20237;-92
2022/07/22 17:40:55;;;;;;;4.72;1.10;;;;;;;37.14;23.06;98834.69;6221697;23;20161;-93
2022/07/22 17:43:55;;;;;;;10.55;1.70;;;;;;;37.10;23.38;98839.88;6216636;23;20193;-92
2022/07/22 17:46:30;;;;;;;6.15;1.40;;;;;;;36.94;23.54;98838.03;6215102;23;20232;-93
2022/07/22 17:49:06;;;;;;;2.70;1.20;;;;;;;36.81;23.54;98843.91;6216230;23;20177;-92
2022/07/22 17:51:36;;;;;;;2.70;1.25;;;;;;;36.77;23.54;98849.06;6216948;23;20177;-92
2022/07/22 17:54:24;;;;;;;4.80;1.67;;;;;;;36.60;24.29;98856.53;6216859;23;20165;-93
2022/07/22 17:57:21;;;;;;;;;;;;;;;;;;;;;
2022/07/22 18:00:09;;;;;;;6.63;1.55;;;;;;;36.38;23.92;98852.94;6217856;23;20213;-92
2022/07/22 18:03:08;;;;;;;4.13;2.20;;;;;;;36.13;24.41;98868.97;6217126;23;20149;-93
2022/07/22 18:05:38;;;;;;;4.10;1.60;;;;;;;35.90;23.86;98871.88;6207903;23;20170;-92
2022/07/22 18:08:07;;;;;;;4.13;1.25;;;;;;;35.81;24.53;98878.81;6215951;23;20478;-92
2022/07/22 18:10:40;;;;;;;6.97;1.70;;;;;;;35.64;24.49;98882.38;6215031;23;20348;-93
2022/07/22 18:13:09;;;;;;;7.47;3.50;;;;;;;35.56;25.08;98887.44;6215319;23;20516;-93
2022/07/22 18:15:42;;;;;;;6.53;1.85;;;;;;;35.30;24.95;98879.88;6216872;23;20169;-92
2022/07/22 18:18:25;;;;;;;5.47;1.52;;;;;;;35.25;25.15;98890.69;6215492;23;20146;-91
2022/07/22 18:20:50;;;;;;;3.78;1.77;;;;;;;35.03;25.32;98887.78;6216631;23;20554;-92
2022/07/22 18:23:16;;;;;;;3.13;1.50;;;;;;;34.80;25.45;98894.13;6215445;23;20183;-93
2022/07/22 18:25:41;;;;;;;6.90;1.50;;;;;;;34.77;25.28;98899.25;6215837;23;20154;-91
2022/07/22 18:28:07;;;;;;;3.17;1.38;;;;;;;34.76;25.02;98901.16;6215743;23;20446;-91
2022/07/22 18:30:37;;;;;;;4.95;1.70;;;;;;;34.74;25.45;98910.63;6215363;23;20149;-92
2022/07/22 18:33:05;;;;;;;3.85;2.17;;;;;;;34.65;25.89;98914.78;6214883;23;20181;-92
2022/07/22 18:35:33;;;;;;;4.57;1.70;;;;;;;34.63;25.60;98909.59;6213805;23;20158;-92
2022/07/22 18:38:04;;;;;;;7.30;2.13;;;;;;;34.49;25.66;98914.44;6215184;23;20153;-92
2022/07/22 18:40:30;;;;;;;7.68;3.80;;;;;;;34.39;25.44;98925.09;6216275;23;20545;-91
2022/07/22 18:42:58;;;;;;;10.23;3.63;;;;;;;34.23;26.30;98928.56;6215206;23;20176;-92
2022/07/22 18:45:23;;;;;;;6.55;2.42;;;;;;;34.16;25.14;98930.56;6214467;23;20570;-91
2022/07/22 18:47:49;;;;;;;9.70;2.00;;;;;;;34.12;25.09;98931.28;6216012;23;20288;-91
2022/07/22 18:50:14;;;;;;;3.40;2.05;;;;;;;34.00;25.41;98931.25;6215187;23;20569;-92
2022/07/22 18:52:44;;;;;;;3.67;1.90;;;;;;;34.02;25.21;98934.53;6214983;23;20260;-91
2022/07/22 18:55:10;;;;;;;13.10;5.63;;;;;;;33.99;25.57;98935.84;6216184;23;20172;-91
2022/07/22 18:57:36;;;;;;;3.53;1.35;;;;;;;34.01;25.65;98938.34;6215204;23;20165;-91
2022/07/22 19:00:07;;;;;;;2.83;1.20;;;;;;;33.95;25.47;98940.13;6214745;23;20548;-91
2022/07/22 19:02:32;;;;;;;4.40;2.05;;;;;;;33.92;25.91;98940.59;6215266;23;20141;-92
2022/07/22 19:04:58;;;;;;;5.03;1.25;;;;;;;33.82;25.76;98945.78;6216355;23;20162;-91
2022/07/22 19:07:23;;;;;;;5.30;1.85;;;;;;;33.73;26.29;98946.34;6215874;23;20149;-91
2022/07/22 19:09:49;;;;;;;9.55;5.13;;;;;;;33.71;26.52;98953.91;6215793;23;20232;-91
2022/07/22 19:12:14;;;;;;;4.38;2.05;;;;;;;33.70;25.45;98952.25;6215827;23;20597;-91
2022/07/22 19:14:40;;;;;;;5.47;1.77;;;;;;;33.61;25.64;98956.38;6215940;23;20146;-91
2022/07/22 19:17:05;;;;;;;5.07;2.10;;;;;;;33.62;25.86;98955.31;6214813;23;20162;-91
2022/07/22 19:19:31;;;;;;;10.95;4.22;;;;;;;33.55;25.90;98958.09;6214820;23;20157;-91
2022/07/22 19:21:56;;;;;;;8.50;3.80;;;;;;;33.46;25.93;98954.06;6215835;23;20240;-91
2022/07/22 19:24:25;;;;;;;6.55;3.03;;;;;;;33.33;26.50;98956.97;6214908;23;20185;-91
2022/07/22 19:26:51;;;;;;;8.55;2.05;;;;;;;33.26;26.38;98959.78;6215937;23;20204;-91
2022/07/22 19:29:16;;;;;;;4.63;1.67;;;;;;;33.21;25.90;98956.09;6211762;23;20220;-92
2022/07/22 19:31:42;;;;;;;9.55;2.60;;;;;;;33.12;25.87;98961.03;6214759;23;20675;-91
2022/07/22 19:34:09;;;;;;;6.43;1.60;;;;;;;32.98;26.05;98959.50;6215172;23;20180;-92
2022/07/22 19:36:45;;;;;;;4.35;1.35;;;;;;;32.94;26.82;98958.28;6215266;23;20172;-92
2022/07/22 19:39:10;;;;;;;3.58;1.33;;;;;;;32.88;26.22;98963.81;6216078;23;20627;-91
2022/07/22 19:41:36;;;;;;;2.70;1.30;;;;;;;32.95;26.79;98965.38;6214854;23;20153;-91
2022/07/22 19:44:02;;;;;;;5.78;0.85;;;;;;;32.86;26.07;98971.34;6241820;23;20611;-91
2022/07/22 19:46:28;;;;;;;3.00;0.98;;;;;;;32.77;26.80;98978.97;6246261;23;20145;-92
2022/07/22 19:48:55;;;;;;;4.07;1.20;;;;;;;32.73;27.00;98983.22;6246431;23;20149;-92
2022/07/22 19:51:23;;;;;;;7.32;1.73;;;;;;;32.63;27.94;98988.31;6219454;23;20181;-92
2022/07/22 19:53:49;;;;;;;4.93;1.50;;;;;;;32.51;28.03;98992.81;6219979;23;20164;-91
2022/07/22 19:56:22;;;;;;;5.80;2.33;;;;;;;32.33;28.27;98990.91;6244219;23;20282;-92
2022/07/22 19:58:47;;;;;;;11.18;3.40;;;;;;;32.26;28.54;98992.81;6246041;23;20192;-92
2022/07/22 20:01:13;;;;;;;10.20;2.67;;;;;;;32.11;28.13;98998.59;6246346;23;20141;-92
2022/07/22 20:03:40;;;;;;;8.77;1.42;;;;;;;32.06;28.00;98997.59;6219919;23;20157;-91
2022/07/22 20:06:08;;;;;;;5.03;1.48;;;;;;;31.97;28.04;98998.91;6219662;23;20226;-91
2022/07/22 20:08:37;;;;;;;8.32;4.15;;;;;;;31.90;29.07;99004.38;6219728;23;20180;-93
2022/07/22 20:11:05;;;;;;;4.53;2.25;;;;;;;31.82;29.00;99001.94;6246594;23;20173;-92
2022/07/22 20:13:31;;;;;;;5.05;2.35;;;;;;;31.52;29.42;99012.56;6219920;23;20153;-91
2022/07/22 20:15:56;;;;;;;5.00;2.55;;;;;;;31.51;29.81;99007.34;6220113;23;20149;-91
2022/07/22 20:18:23;;;;;;;5.85;2.10;;;;;;;31.47;29.97;99014.28;6219178;23;20167;-92
2022/07/22 20:20:56;;;;;;;6.18;1.95;;;;;;;31.44;30.06;99014.66;6221819;23;20149;-92
2022/07/22 20:23:27;;;;;;;7.75;2.00;;;;;;;31.42;30.32;99011.34;6245859;23;20135;-94
2022/07/22 20:26:10;;;;;;;5.68;1.92;;;;;;;31.33;30.42;99009.94;6221701;23;20153;-92
2022/07/22 20:28:38;;;;;;;5.20;2.08;;;;;;;31.17;30.69;99013.13;6221537;23;20157;-92
2022/07/22 20:31:06;;;;;;;4.75;2.30;;;;;;;31.03;30.57;99012.34;6221281;23;20152;-91
2022/07/22 20:33:34;;;;;;;8.10;2.40;;;;;;;30.91;31.36;99012.19;6221221;23;20588;-92
2022/07/22 20:36:02;;;;;;;4.07;2.20;;;;;;;30.70;31.37;99006.19;6221639;23;20230;-92
2022/07/22 20:38:30;;;;;;;5.47;1.95;;;;;;;30.54;32.44;99012.88;6221022;23;20157;-92
2022/07/22 20:40:56;;;;;;;5.10;2.22;;;;;;;30.53;31.97;99011.22;6247740;23;20216;-93
2022/07/22 20:43:21;;;;;;;11.10;6.25;;;;;;;30.35;32.79;99013.69;6247656;23;20195;-91
2022/07/22 20:45:47;;;;;;;19.08;8.73;;;;;;;30.29;32.58;99019.97;6221490;23;20160;-92
2022/07/22 20:48:15;;;;;;;9.75;4.93;;;;;;;30.20;32.12;99019.34;6221137;23;20152;-93